Terminal Aerodrome Forecast
Issued by NWS Portland, ME

Home | Current Version | Previous Version | Text Only | Print | Product List | Glossary On
Versions: 1 2 3 4 5 6 7 8 9 10 11 12 13 14 15 16 17 18 19
000
FTUS41 KGYX 011120
TAFPWM
TAF
KPWM 011120Z 0112/0212 01013KT P6SM OVC018
     FM011400 01015G23KT 6SM -RA OVC015
     FM011800 01018G25KT 4SM -RA OVC015
     FM020300 35022G30KT 2SM -RA BR OVC007=

USA.gov is the U.S. government's official web portal to all federal, state and local government web resources and services.